Time;durP1;ratioP1;P1;durP2;ratioP2;P2;SDS_P1;SDS_P2;PMS_P1;PMS_P2;Temp;Humidity;BMP_temperature;BMP_pressure;BME280_temperature;BME280_humidity;BME280_pressure;Samples;Min_cycle;Max_cycle;Signal;HPM_P1;HPM_P2
2022/08/23 00:01:53;;;;;;;;;;;19.60;77.20;;;;;;5009217;28;21617;-66
2022/08/23 00:04:22;;;;;;;;;;;19.50;77.40;;;;;;5009407;28;20633;-66
2022/08/23 00:06:49;;;;;;;;;;;19.50;77.70;;;;;;5009099;28;19995;-66
2022/08/23 00:09:16;;;;;;;;;;;19.50;77.10;;;;;;5008382;28;19968;-66
2022/08/23 00:11:44;;;;;;;;;;;19.50;77.80;;;;;;5009293;28;20647;-66
2022/08/23 00:14:12;;;;;;;;;;;19.40;77.20;;;;;;5005407;28;20445;-66
2022/08/23 00:16:39;;;;;;;;;;;19.40;77.50;;;;;;5008721;28;19921;-66
2022/08/23 00:19:06;;;;;;;;;;;19.40;77.80;;;;;;5024524;28;19921;-66
2022/08/23 00:21:32;;;;;;;;;;;19.30;77.70;;;;;;5009452;28;19925;-66
2022/08/23 00:23:58;;;;;;;;;;;19.30;77.80;;;;;;5007746;28;19952;-66
2022/08/23 00:26:24;;;;;;;;;;;19.30;77.90;;;;;;5009487;28;19925;-66
2022/08/23 00:28:50;;;;;;;;;;;19.30;78.30;;;;;;5009622;28;19925;-66
2022/08/23 00:31:16;;;;;;;;;;;19.30;78.30;;;;;;5009052;28;19932;-66
2022/08/23 00:33:42;;;;;;;;;;;19.30;78.10;;;;;;5008847;28;19929;-66
2022/08/23 00:36:07;;;;;;;;;;;19.20;78.30;;;;;;5009420;28;20302;-66
2022/08/23 00:38:33;;;;;;;;;;;19.20;78.20;;;;;;5008721;28;19925;-66
2022/08/23 00:41:00;;;;;;;;;;;19.20;78.50;;;;;;5009470;28;20412;-66
2022/08/23 00:49:06;;;;;;;;;;;19.20;79.00;;;;;;5005576;28;19929;-66
2022/08/23 00:51:35;;;;;;;;;;;19.20;79.10;;;;;;5008640;28;19921;-66
2022/08/23 00:54:00;;;;;;;;;;;19.10;78.80;;;;;;5008367;28;19975;-66
2022/08/23 00:56:29;;;;;;;;;;;19.10;79.40;;;;;;5008568;28;20329;-66
2022/08/23 00:58:54;;;;;;;;;;;19.10;79.40;;;;;;5008702;28;19921;-66
2022/08/23 01:01:20;;;;;;;;;;;19.10;79.20;;;;;;5008743;28;20385;-66
2022/08/23 01:03:49;;;;;;;;;;;19.10;78.90;;;;;;5008047;28;19921;-66
2022/08/23 01:06:17;;;;;;;;;;;19.00;79.00;;;;;;5010311;28;19921;-66
2022/08/23 01:08:47;;;;;;;;;;;19.00;79.10;;;;;;5011989;28;19925;-66
2022/08/23 01:11:15;;;;;;;;;;;19.00;79.30;;;;;;5011298;28;19922;-66
2022/08/23 01:13:44;;;;;;;;;;;19.00;79.30;;;;;;5012088;28;19929;-66
2022/08/23 01:16:32;;;;;;;;;;;19.00;79.30;;;;;;5007852;28;19930;-66
2022/08/23 01:18:58;;;;;;;;;;;19.00;79.30;;;;;;5002783;28;19921;-66
2022/08/23 01:21:28;;;;;;;;;;;19.00;79.30;;;;;;5011725;28;19921;-66
2022/08/23 01:23:55;;;;;;;;;;;19.00;79.40;;;;;;4999464;28;19922;-66
2022/08/23 01:26:21;;;;;;;;;;;19.00;79.40;;;;;;5008583;28;19921;-66
2022/08/23 01:28:47;;;;;;;;;;;18.90;79.70;;;;;;5011238;28;19925;-66
2022/08/23 01:31:14;;;;;;;;;;;18.90;79.70;;;;;;5011845;28;19922;-66
2022/08/23 01:33:39;;;;;;;;;;;18.90;79.70;;;;;;5011887;28;19921;-66
2022/08/23 01:36:07;;;;;;;;;;;18.90;79.70;;;;;;5011886;28;19927;-66
2022/08/23 01:38:32;;;;;;;;;;;18.80;79.60;;;;;;5011494;28;20283;-66
2022/08/23 01:40:58;;;;;;;;;;;18.80;79.60;;;;;;5011180;28;19921;-66
2022/08/23 01:43:25;;;;;;;;;;;18.80;79.60;;;;;;5010955;28;19925;-66
2022/08/23 01:45:51;;;;;;;;;;;18.80;80.10;;;;;;5011825;28;20263;-66
2022/08/23 01:48:16;;;;;;;;;;;18.80;80.30;;;;;;5010468;28;19925;-66
2022/08/23 01:50:42;;;;;;;;;;;18.80;80.30;;;;;;5012087;28;19925;-66
2022/08/23 01:53:07;;;;;;;;;;;18.80;80.60;;;;;;5011301;28;19929;-66
2022/08/23 01:55:34;;;;;;;;;;;18.80;80.70;;;;;;5011074;28;20016;-66
2022/08/23 01:58:01;;;;;;;;;;;18.80;80.70;;;;;;5011323;28;19921;-66
2022/08/23 02:00:29;;;;;;;;;;;18.80;81.00;;;;;;5011394;28;20021;-66
2022/08/23 02:02:55;;;;;;;;;;;18.70;80.50;;;;;;5011469;28;19922;-66
2022/08/23 02:05:21;;;;;;;;;;;18.70;80.20;;;;;;5011109;28;20047;-66
2022/08/23 02:07:47;;;;;;;;;;;18.70;80.40;;;;;;5011212;28;20070;-66
2022/08/23 02:10:13;;;;;;;;;;;18.60;81.00;;;;;;5010967;28;20350;-66
2022/08/23 02:12:38;;;;;;;;;;;18.60;80.90;;;;;;5011921;28;19925;-66
2022/08/23 02:15:04;;;;;;;;;;;18.60;81.00;;;;;;5011973;28;19967;-66
2022/08/23 02:17:30;;;;;;;;;;;18.60;80.70;;;;;;5012024;28;19971;-66
2022/08/23 02:19:55;;;;;;;;;;;18.60;80.60;;;;;;5011760;28;19922;-66
2022/08/23 02:22:21;;;;;;;;;;;18.50;80.60;;;;;;5010493;28;19928;-66
2022/08/23 02:24:47;;;;;;;;;;;18.50;80.50;;;;;;5026003;28;19922;-66
2022/08/23 02:27:14;;;;;;;;;;;18.60;80.60;;;;;;5010011;28;20394;-66
2022/08/23 02:29:40;;;;;;;;;;;18.50;80.60;;;;;;5011227;28;19971;-66
2022/08/23 02:32:07;;;;;;;;;;;18.50;80.90;;;;;;5009270;28;19944;-66
2022/08/23 02:34:32;;;;;;;;;;;18.60;80.90;;;;;;4991593;28;20286;-66
2022/08/23 02:36:58;;;;;;;;;;;18.60;81.20;;;;;;4991970;28;19922;-66
2022/08/23 02:39:23;;;;;;;;;;;18.60;81.10;;;;;;5010411;28;20885;-66
2022/08/23 02:41:49;;;;;;;;;;;18.60;81.10;;;;;;5010203;28;19964;-66
2022/08/23 02:44:15;;;;;;;;;;;18.60;80.90;;;;;;5010370;28;19922;-66
2022/08/23 02:46:40;;;;;;;;;;;18.60;80.90;;;;;;5026265;28;20353;-66
2022/08/23 02:49:06;;;;;;;;;;;18.60;80.90;;;;;;5010167;28;20390;-66
2022/08/23 02:51:32;;;;;;;;;;;18.50;81.00;;;;;;5010008;28;19921;-66
2022/08/23 02:53:57;;;;;;;;;;;18.50;81.00;;;;;;5010305;28;19925;-66
2022/08/23 02:56:23;;;;;;;;;;;18.50;81.10;;;;;;5009822;28;20012;-66
2022/08/23 02:58:51;;;;;;;;;;;18.50;81.10;;;;;;5010448;28;19957;-66
2022/08/23 03:01:18;;;;;;;;;;;18.40;81.60;;;;;;5025074;28;19967;-66
2022/08/23 03:03:44;;;;;;;;;;;18.50;81.50;;;;;;5009867;28;19952;-66
2022/08/23 03:06:11;;;;;;;;;;;18.40;81.30;;;;;;5009718;28;19922;-66
2022/08/23 03:08:36;;;;;;;;;;;18.40;81.20;;;;;;5010097;28;19968;-66
2022/08/23 03:11:01;;;;;;;;;;;18.40;81.10;;;;;;5009738;28;19960;-66
2022/08/23 03:13:27;;;;;;;;;;;18.40;80.90;;;;;;5009275;28;19921;-66
2022/08/23 03:15:53;;;;;;;;;;;18.40;80.90;;;;;;5009299;28;19921;-66
2022/08/23 03:18:19;;;;;;;;;;;18.30;81.00;;;;;;5009867;28;19932;-66
2022/08/23 03:20:45;;;;;;;;;;;18.40;81.20;;;;;;5009936;28;20362;-66
2022/08/23 03:23:10;;;;;;;;;;;18.30;81.00;;;;;;5009522;28;19925;-66
2022/08/23 03:25:36;;;;;;;;;;;18.30;81.20;;;;;;5009807;28;21212;-66
2022/08/23 03:28:03;;;;;;;;;;;18.30;81.20;;;;;;5009118;28;20369;-67
2022/08/23 03:30:32;;;;;;;;;;;18.30;81.20;;;;;;5009464;28;19921;-66
2022/08/23 03:32:58;;;;;;;;;;;18.20;81.40;;;;;;5009857;28;19975;-66
2022/08/23 03:35:24;;;;;;;;;;;18.20;81.30;;;;;;5010206;28;19925;-66
2022/08/23 03:37:52;;;;;;;;;;;18.20;81.40;;;;;;5009646;28;19928;-66
2022/08/23 03:40:18;;;;;;;;;;;18.30;81.40;;;;;;5009642;28;19929;-66
2022/08/23 03:42:46;;;;;;;;;;;18.20;81.40;;;;;;5008765;28;20607;-66
2022/08/23 03:45:11;;;;;;;;;;;18.20;81.50;;;;;;5009908;28;19921;-66
2022/08/23 03:47:38;;;;;;;;;;;18.20;81.40;;;;;;5009782;28;19925;-66
2022/08/23 03:50:03;;;;;;;;;;;18.20;81.20;;;;;;5009587;28;19932;-66
2022/08/23 03:52:29;;;;;;;;;;;18.20;81.20;;;;;;5008989;28;19921;-66
2022/08/23 03:54:54;;;;;;;;;;;18.20;81.60;;;;;;5009481;28;20310;-66
2022/08/23 03:57:20;;;;;;;;;;;18.10;81.60;;;;;;5007883;28;19930;-66
2022/08/23 03:59:47;;;;;;;;;;;18.10;81.80;;;;;;5009413;28;19925;-66
2022/08/23 04:02:13;;;;;;;;;;;18.10;81.50;;;;;;5009000;28;19947;-66
2022/08/23 04:04:39;;;;;;;;;;;18.10;81.80;;;;;;5010125;28;19974;-66
2022/08/23 04:07:04;;;;;;;;;;;18.10;82.00;;;;;;5009171;28;19921;-66
2022/08/23 04:09:30;;;;;;;;;;;18.10;81.90;;;;;;5009661;28;19926;-67
2022/08/23 04:11:56;;;;;;;;;;;18.10;82.00;;;;;;5008921;28;19929;-66
2022/08/23 04:14:23;;;;;;;;;;;18.00;82.00;;;;;;5009159;28;19921;-66
2022/08/23 04:16:48;;;;;;;;;;;18.00;81.90;;;;;;5008529;28;20370;-66
2022/08/23 04:19:14;;;;;;;;;;;18.00;81.90;;;;;;5009303;28;19925;-66
2022/08/23 04:21:47;;;;;;;;;;;18.00;81.90;;;;;;5009030;28;20464;-66
2022/08/23 04:24:13;;;;;;;;;;;18.00;81.80;;;;;;5008484;28;19932;-66
2022/08/23 04:26:39;;;;;;;;;;;18.00;81.80;;;;;;5009228;28;19921;-66
2022/08/23 04:29:04;;;;;;;;;;;18.00;81.80;;;;;;5009190;28;19926;-66
2022/08/23 04:31:32;;;;;;;;;;;18.00;82.00;;;;;;5008997;28;19980;-66
2022/08/23 04:33:58;;;;;;;;;;;18.00;81.80;;;;;;5009413;28;19922;-66
2022/08/23 04:36:23;;;;;;;;;;;18.00;82.10;;;;;;5008277;28;19921;-66
2022/08/23 04:38:49;;;;;;;;;;;18.00;82.10;;;;;;5009065;28;19921;-66
2022/08/23 04:43:59;;;;;;;;;;;17.90;82.20;;;;;;5012478;28;19976;-66
2022/08/23 04:46:25;;;;;;;;;;;17.90;82.00;;;;;;5012451;28;20385;-66
2022/08/23 04:48:50;;;;;;;;;;;17.80;82.10;;;;;;5027109;28;20024;-66
2022/08/23 04:51:16;;;;;;;;;;;17.90;82.30;;;;;;5012731;28;19929;-66
2022/08/23 04:53:42;;;;;;;;;;;17.90;82.40;;;;;;5012813;28;19971;-66
2022/08/23 04:56:08;;;;;;;;;;;17.90;82.40;;;;;;5011637;28;19925;-66
2022/08/23 04:58:35;;;;;;;;;;;17.80;82.50;;;;;;5012289;28;19932;-66
2022/08/23 05:01:01;;;;;;;;;;;17.90;82.40;;;;;;5012276;28;19975;-66
2022/08/23 05:03:28;;;;;;;;;;;17.90;82.30;;;;;;5012011;28;19981;-66
2022/08/23 05:05:54;;;;;;;;;;;17.90;82.50;;;;;;5012232;28;19928;-66
2022/08/23 05:08:19;;;;;;;;;;;17.90;82.50;;;;;;5011915;28;19925;-66
2022/08/23 05:10:45;;;;;;;;;;;17.90;82.30;;;;;;5010542;28;19940;-66
2022/08/23 05:13:11;;;;;;;;;;;17.90;82.40;;;;;;5009359;28;19921;-67
2022/08/23 05:15:37;;;;;;;;;;;17.90;82.60;;;;;;5010284;28;19921;-66
2022/08/23 05:18:02;;;;;;;;;;;17.90;83.10;;;;;;5011315;28;19991;-66
2022/08/23 05:20:28;;;;;;;;;;;17.90;83.10;;;;;;5011244;28;19921;-66
2022/08/23 05:22:53;;;;;;;;;;;18.00;83.10;;;;;;5011037;28;19929;-66
2022/08/23 05:25:19;;;;;;;;;;;18.10;83.00;;;;;;5011072;28;20258;-66
2022/08/23 05:27:45;;;;;;;;;;;18.10;83.00;;;;;;5011063;28;19925;-66
2022/08/23 05:30:11;;;;;;;;;;;18.10;83.00;;;;;;5012853;28;19921;-65
2022/08/23 05:32:36;;;;;;;;;;;18.10;82.90;;;;;;5011190;28;19959;-65
2022/08/23 05:35:02;;;;;;;;;;;18.10;82.90;;;;;;5012822;28;19921;-66
2022/08/23 05:37:27;;;;;;;;;;;18.20;82.80;;;;;;5011514;28;19936;-66
2022/08/23 05:39:53;;;;;;;;;;;18.30;82.90;;;;;;5012152;28;19921;-65
2022/08/23 05:42:18;;;;;;;;;;;18.30;82.70;;;;;;5027281;28;19929;-65
2022/08/23 05:44:44;;;;;;;;;;;18.30;82.60;;;;;;5012559;28;19929;-65
2022/08/23 05:47:10;;;;;;;;;;;18.40;82.60;;;;;;5011729;28;20002;-66
2022/08/23 05:49:36;;;;;;;;;;;18.50;82.50;;;;;;5011927;28;19975;-66
2022/08/23 05:52:05;;;;;;;;;;;18.50;82.30;;;;;;5010434;28;19921;-66
2022/08/23 05:54:31;;;;;;;;;;;18.50;81.90;;;;;;5012029;28;19953;-66
2022/08/23 05:56:56;;;;;;;;;;;18.60;82.00;;;;;;5011443;28;20003;-66
2022/08/23 05:59:22;;;;;;;;;;;18.60;82.20;;;;;;5010343;28;19921;-66
2022/08/23 06:01:47;;;;;;;;;;;18.70;82.00;;;;;;5010489;28;20358;-65
2022/08/23 06:04:13;;;;;;;;;;;18.70;82.00;;;;;;5011146;28;20030;-66
2022/08/23 06:06:40;;;;;;;;;;;18.80;82.20;;;;;;5010324;28;20401;-66
2022/08/23 06:09:07;;;;;;;;;;;18.90;82.40;;;;;;5010395;28;19925;-66
2022/08/23 06:11:32;;;;;;;;;;;18.90;82.30;;;;;;5010862;28;20012;-66
2022/08/23 06:13:59;;;;;;;;;;;18.90;82.20;;;;;;5009284;28;20024;-66
2022/08/23 06:16:26;;;;;;;;;;;18.90;82.20;;;;;;5010170;28;19929;-66
2022/08/23 06:18:52;;;;;;;;;;;18.90;82.10;;;;;;5008760;28;19929;-66
2022/08/23 06:21:18;;;;;;;;;;;18.90;82.00;;;;;;5008827;28;20350;-66
2022/08/23 06:23:46;;;;;;;;;;;18.90;82.10;;;;;;5009620;28;20001;-66
2022/08/23 06:26:13;;;;;;;;;;;19.00;82.10;;;;;;5007652;28;20063;-66
2022/08/23 06:28:39;;;;;;;;;;;19.00;82.00;;;;;;5010480;28;19921;-66
2022/08/23 06:31:05;;;;;;;;;;;19.00;82.10;;;;;;5009429;28;20362;-66
2022/08/23 06:33:30;;;;;;;;;;;19.00;81.90;;;;;;5010289;28;19932;-66
2022/08/23 06:36:03;;;;;;;;;;;19.00;81.60;;;;;;5009564;28;19968;-67
2022/08/23 06:38:30;;;;;;;;;;;19.10;81.60;;;;;;5010447;28;19968;-66
2022/08/23 06:40:59;;;;;;;;;;;19.10;81.90;;;;;;5009493;28;19921;-66
2022/08/23 06:43:26;;;;;;;;;;;19.10;82.00;;;;;;5007946;28;20028;-66
2022/08/23 06:45:52;;;;;;;;;;;19.20;82.10;;;;;;5009604;28;19929;-67
2022/08/23 06:48:17;;;;;;;;;;;19.20;81.90;;;;;;5009773;28;19921;-67
2022/08/23 06:50:43;;;;;;;;;;;19.30;81.80;;;;;;5009882;28;19928;-67
2022/08/23 06:53:08;;;;;;;;;;;19.30;81.60;;;;;;5001049;28;19936;-67
2022/08/23 06:55:34;;;;;;;;;;;19.30;81.90;;;;;;5003324;28;19925;-67
2022/08/23 06:58:00;;;;;;;;;;;19.40;82.00;;;;;;5007969;28;19925;-67
2022/08/23 07:00:25;;;;;;;;;;;19.40;81.80;;;;;;5009576;28;19947;-67
2022/08/23 07:02:51;;;;;;;;;;;19.50;81.80;;;;;;4991449;28;19929;-67
2022/08/23 07:05:16;;;;;;;;;;;19.50;81.80;;;;;;5010301;28;20323;-67
2022/08/23 07:07:42;;;;;;;;;;;19.60;82.00;;;;;;5010332;28;19976;-68
2022/08/23 07:10:08;;;;;;;;;;;19.60;81.90;;;;;;5009334;28;19984;-67
2022/08/23 07:12:36;;;;;;;;;;;19.70;81.70;;;;;;5007679;28;19926;-67
2022/08/23 07:15:02;;;;;;;;;;;19.80;81.60;;;;;;5007893;28;19967;-67
2022/08/23 07:17:27;;;;;;;;;;;19.90;81.60;;;;;;5009775;28;19925;-66
2022/08/23 07:19:53;;;;;;;;;;;19.90;81.30;;;;;;5009591;28;19928;-66
2022/08/23 07:22:19;;;;;;;;;;;19.90;81.40;;;;;;5006676;28;19933;-66
2022/08/23 07:24:44;;;;;;;;;;;20.00;81.30;;;;;;5004941;28;19925;-66
2022/08/23 07:27:11;;;;;;;;;;;20.10;81.40;;;;;;5008905;28;19921;-67
2022/08/23 07:29:38;;;;;;;;;;;20.10;81.40;;;;;;5009222;28;19937;-67
2022/08/23 07:32:04;;;;;;;;;;;20.20;80.80;;;;;;5008289;28;19928;-67
2022/08/23 07:34:29;;;;;;;;;;;20.20;80.30;;;;;;5009037;28;20263;-67
2022/08/23 07:36:55;;;;;;;;;;;20.30;80.00;;;;;;5009572;28;19929;-67
2022/08/23 07:39:21;;;;;;;;;;;20.30;79.80;;;;;;5005316;28;19961;-67
2022/08/23 07:41:47;;;;;;;;;;;20.50;79.70;;;;;;5005527;28;20374;-67
2022/08/23 07:44:13;;;;;;;;;;;20.50;79.50;;;;;;5004748;28;20006;-66
2022/08/23 07:46:40;;;;;;;;;;;20.60;79.40;;;;;;5008560;28;19928;-67
2022/08/23 07:49:06;;;;;;;;;;;20.80;79.40;;;;;;5006975;28;20395;-67
2022/08/23 07:51:33;;;;;;;;;;;20.90;79.20;;;;;;5004282;28;19963;-67
2022/08/23 07:54:00;;;;;;;;;;;21.00;79.00;;;;;;5007857;28;21062;-67
2022/08/23 07:56:25;;;;;;;;;;;21.20;78.50;;;;;;5008941;28;19925;-67
2022/08/23 07:58:51;;;;;;;;;;;21.30;78.40;;;;;;4994765;28;19929;-67
2022/08/23 08:01:19;;;;;;;;;;;21.40;78.20;;;;;;5008835;28;19932;-66
2022/08/23 08:03:45;;;;;;;;;;;21.50;77.40;;;;;;5005678;28;19971;-67
2022/08/23 08:06:15;;;;;;;;;;;21.50;77.30;;;;;;5009012;28;20391;-67
2022/08/23 08:08:41;;;;;;;;;;;21.60;77.10;;;;;;5009367;28;20012;-67
2022/08/23 08:11:07;;;;;;;;;;;21.70;77.10;;;;;;5008112;28;20021;-67
2022/08/23 08:13:34;;;;;;;;;;;21.80;77.20;;;;;;5005885;28;19944;-67
2022/08/23 08:15:59;;;;;;;;;;;21.90;76.90;;;;;;5012794;28;19922;-67
2022/08/23 08:18:25;;;;;;;;;;;22.00;76.00;;;;;;5012456;28;19929;-67
2022/08/23 08:20:50;;;;;;;;;;;22.00;74.50;;;;;;5014453;28;20302;-67
2022/08/23 08:23:16;;;;;;;;;;;22.10;73.10;;;;;;5013810;28;20020;-67
2022/08/23 08:25:42;;;;;;;;;;;22.10;73.60;;;;;;5013194;28;19926;-68
2022/08/23 08:28:08;;;;;;;;;;;22.20;73.00;;;;;;5012174;28;20509;-67
2022/08/23 08:30:33;;;;;;;;;;;22.30;73.20;;;;;;5012681;28;20497;-67
2022/08/23 08:32:58;;;;;;;;;;;22.40;73.50;;;;;;5013459;28;19921;-67
2022/08/23 08:35:24;;;;;;;;;;;22.40;73.30;;;;;;5012700;28;19929;-67
2022/08/23 08:37:49;;;;;;;;;;;22.50;73.50;;;;;;5012996;28;20640;-67
2022/08/23 08:40:19;;;;;;;;;;;22.60;72.60;;;;;;5027740;28;19925;-67
2022/08/23 08:43:04;;;;;;;;;;;22.70;71.80;;;;;;5012661;28;19922;-67
2022/08/23 08:45:44;;;;;;;;;;;22.70;72.20;;;;;;5011464;28;19928;-67
2022/08/23 08:48:13;;;;;;;;;;;22.80;71.70;;;;;;5012991;28;19928;-67
2022/08/23 08:50:44;;;;;;;;;;;22.90;72.20;;;;;;5013469;28;19927;-67
2022/08/23 08:53:15;;;;;;;;;;;22.90;72.00;;;;;;5011665;28;19960;-67
2022/08/23 08:55:46;;;;;;;;;;;23.00;72.80;;;;;;5012348;28;19928;-67
2022/08/23 08:58:16;;;;;;;;;;;23.00;72.80;;;;;;5012560;28;19921;-67
2022/08/23 09:00:41;;;;;;;;;;;23.10;72.50;;;;;;4993687;28;19969;-67
2022/08/23 09:03:11;;;;;;;;;;;23.10;72.30;;;;;;5003321;28;19921;-67
2022/08/23 09:05:38;;;;;;;;;;;23.10;71.80;;;;;;5012034;28;20402;-67
2022/08/23 09:08:22;;;;;;;;;;;23.20;72.20;;;;;;5008835;28;20290;-67
2022/08/23 09:10:55;;;;;;;;;;;23.20;71.80;;;;;;5011981;28;19926;-67
2022/08/23 09:13:26;;;;;;;;;;;23.30;71.90;;;;;;5010397;28;19929;-66
2022/08/23 09:15:57;;;;;;;;;;;23.40;70.50;;;;;;5012087;28;19927;-66
2022/08/23 09:18:23;;;;;;;;;;;23.50;70.60;;;;;;5011268;28;19921;-66
2022/08/23 09:20:51;;;;;;;;;;;23.50;70.40;;;;;;5008290;28;19948;-66
2022/08/23 09:23:20;;;;;;;;;;;23.60;70.40;;;;;;5011478;28;20454;-67
2022/08/23 09:25:53;;;;;;;;;;;23.60;69.10;;;;;;5011592;28;19976;-68
2022/08/23 09:28:19;;;;;;;;;;;23.70;68.60;;;;;;5011398;28;19925;-69
2022/08/23 09:30:49;;;;;;;;;;;23.80;68.60;;;;;;5008168;28;19964;-68
2022/08/23 09:33:16;;;;;;;;;;;23.90;69.80;;;;;;5006822;28;19937;-68
2022/08/23 09:35:42;;;;;;;;;;;23.90;68.40;;;;;;5011221;28;19928;-68
2022/08/23 09:38:11;;;;;;;;;;;23.90;67.80;;;;;;5011492;28;19925;-68
2022/08/23 09:40:42;;;;;;;;;;;24.00;67.80;;;;;;5011381;28;19948;-67
2022/08/23 09:43:34;;;;;;;;;;;24.00;67.00;;;;;;5009184;28;19928;-68
2022/08/23 09:46:00;;;;;;;;;;;24.00;67.60;;;;;;5004085;28;19980;-68
2022/08/23 09:48:38;;;;;;;;;;;24.10;68.10;;;;;;5010262;28;19968;-68
2022/08/23 09:51:07;;;;;;;;;;;24.20;66.40;;;;;;5004963;28;19968;-68
2022/08/23 09:53:33;;;;;;;;;;;24.20;64.90;;;;;;5011159;28;19929;-68
2022/08/23 09:56:10;;;;;;;;;;;24.30;66.20;;;;;;5009842;28;19921;-68
2022/08/23 09:58:37;;;;;;;;;;;24.40;66.90;;;;;;5010408;28;19929;-68
2022/08/23 10:01:05;;;;;;;;;;;24.50;65.70;;;;;;5007549;28;20041;-68
2022/08/23 10:03:31;;;;;;;;;;;24.50;65.60;;;;;;5010701;28;19987;-68
2022/08/23 10:05:58;;;;;;;;;;;24.50;65.60;;;;;;5008143;28;19926;-68
2022/08/23 10:08:31;;;;;;;;;;;24.50;63.30;;;;;;5008347;28;20048;-68
2022/08/23 10:11:02;;;;;;;;;;;24.50;62.80;;;;;;5009855;28;20467;-68
2022/08/23 10:13:27;;;;;;;;;;;24.60;62.30;;;;;;5007315;28;19967;-68
2022/08/23 10:15:53;;;;;;;;;;;24.60;64.80;;;;;;5010745;28;20301;-67
2022/08/23 10:18:30;;;;;;;;;;;24.60;65.00;;;;;;5009604;28;20015;-68
2022/08/23 10:20:56;;;;;;;;;;;24.60;64.10;;;;;;5008630;28;20420;-68
2022/08/23 10:23:29;;;;;;;;;;;24.80;64.30;;;;;;5010452;28;19925;-67
2022/08/23 10:25:57;;;;;;;;;;;24.80;63.90;;;;;;5000314;28;20059;-67
2022/08/23 10:31:46;;;;;;;;;;;24.90;64.30;;;;;;5011484;28;19921;-68
2022/08/23 10:34:20;;;;;;;;;;;25.00;63.90;;;;;;4995297;28;19944;-68
2022/08/23 10:36:53;;;;;;;;;;;25.00;62.60;;;;;;5011039;28;19928;-68
2022/08/23 10:39:42;;;;;;;;;;;25.10;63.20;;;;;;5006945;28;19968;-68
2022/08/23 10:42:21;;;;;;;;;;;25.10;63.40;;;;;;5010432;28;20525;-68
2022/08/23 10:44:46;;;;;;;;;;;25.10;62.80;;;;;;5007325;28;19921;-68
2022/08/23 10:47:22;;;;;;;;;;;25.10;63.70;;;;;;5006682;28;19922;-68
2022/08/23 10:49:50;;;;;;;;;;;25.20;63.60;;;;;;5009471;28;19936;-68
2022/08/23 10:52:19;;;;;;;;;;;25.10;63.10;;;;;;5010126;28;19928;-68
2022/08/23 10:54:58;;;;;;;;;;;25.20;64.00;;;;;;5009806;28;19921;-68
2022/08/23 10:57:27;;;;;;;;;;;25.10;63.90;;;;;;5008051;28;19929;-68
2022/08/23 10:59:54;;;;;;;;;;;25.10;64.40;;;;;;5005465;28;19932;-67
2022/08/23 11:02:49;;;;;;;;;;;25.20;63.80;;;;;;5008523;28;19922;-68
2022/08/23 11:05:21;;;;;;;;;;;25.20;64.80;;;;;;5000678;28;19922;-68
2022/08/23 11:07:55;;;;;;;;;;;25.30;64.80;;;;;;5009887;28;20375;-68
2022/08/23 11:10:28;;;;;;;;;;;25.40;64.30;;;;;;5007349;28;19980;-68
2022/08/23 11:12:53;;;;;;;;;;;25.50;63.60;;;;;;5009343;28;19957;-67
2022/08/23 11:15:27;;;;;;;;;;;25.50;62.20;;;;;;5005629;28;20027;-68
2022/08/23 11:17:55;;;;;;;;;;;25.50;63.40;;;;;;5005671;28;20344;-68
2022/08/23 11:20:39;;;;;;;;;;;25.60;62.60;;;;;;5008295;28;20409;-68
2022/08/23 11:23:06;;;;;;;;;;;25.70;62.80;;;;;;5010128;28;19965;-67
2022/08/23 11:25:32;;;;;;;;;;;25.70;62.40;;;;;;5003552;28;19925;-67
2022/08/23 11:28:16;;;;;;;;;;;25.70;62.60;;;;;;5002410;28;19983;-68
2022/08/23 11:30:44;;;;;;;;;;;25.80;62.30;;;;;;5008702;28;20314;-67
2022/08/23 11:33:19;;;;;;;;;;;25.90;62.40;;;;;;5004527;28;20710;-68
2022/08/23 11:35:49;;;;;;;;;;;25.90;62.80;;;;;;5006107;28;19932;-68
2022/08/23 11:38:16;;;;;;;;;;;26.00;61.10;;;;;;5007754;28;19928;-68
2022/08/23 11:40:51;;;;;;;;;;;26.00;60.10;;;;;;5005696;28;19925;-68
2022/08/23 11:43:28;;;;;;;;;;;26.00;61.40;;;;;;5007850;28;20008;-68
2022/08/23 11:46:12;;;;;;;;;;;26.10;61.00;;;;;;5009141;28;20466;-68
2022/08/23 11:48:40;;;;;;;;;;;26.10;60.90;;;;;;5023013;28;19925;-68
2022/08/23 11:51:17;;;;;;;;;;;26.20;60.40;;;;;;5009017;28;19921;-68
2022/08/23 11:53:42;;;;;;;;;;;26.30;60.80;;;;;;5005808;28;19925;-68
2022/08/23 11:56:13;;;;;;;;;;;26.30;59.50;;;;;;5001808;28;20251;-68
2022/08/23 11:58:51;;;;;;;;;;;26.40;59.60;;;;;;5004461;28;19974;-67
2022/08/23 12:01:26;;;;;;;;;;;26.50;57.20;;;;;;5008613;28;20305;-68
2022/08/23 12:04:09;;;;;;;;;;;26.50;57.80;;;;;;5009013;28;20420;-68
2022/08/23 12:06:37;;;;;;;;;;;26.70;59.10;;;;;;5008612;28;20332;-67
2022/08/23 12:09:05;;;;;;;;;;;26.70;59.00;;;;;;5008270;28;20374;-67
2022/08/23 12:11:50;;;;;;;;;;;26.70;58.30;;;;;;5003886;28;19936;-67
2022/08/23 12:14:31;;;;;;;;;;;26.70;59.10;;;;;;5005729;28;19921;-67
2022/08/23 12:16:57;;;;;;;;;;;26.60;59.40;;;;;;5006942;28;19925;-68
2022/08/23 12:19:45;;;;;;;;;;;26.60;57.90;;;;;;5007804;28;19922;-68
2022/08/23 12:22:12;;;;;;;;;;;26.60;59.20;;;;;;5004356;28;19925;-68
2022/08/23 12:24:42;;;;;;;;;;;26.80;58.70;;;;;;5009381;28;19921;-67
2022/08/23 12:27:20;;;;;;;;;;;26.90;59.20;;;;;;5006773;28;20068;-67
2022/08/23 12:29:51;;;;;;;;;;;27.00;58.60;;;;;;4995666;28;19921;-67
2022/08/23 12:32:29;;;;;;;;;;;27.00;56.30;;;;;;5008175;28;19929;-66
2022/08/23 12:34:58;;;;;;;;;;;27.00;58.10;;;;;;5006901;28;20337;-67
2022/08/23 12:37:29;;;;;;;;;;;27.00;57.70;;;;;;5007383;28;20004;-68
2022/08/23 12:39:57;;;;;;;;;;;27.00;57.50;;;;;;5007508;28;19925;-66
2022/08/23 12:42:27;;;;;;;;;;;27.10;56.80;;;;;;5010120;28;19971;-67
2022/08/23 12:45:02;;;;;;;;;;;27.10;56.80;;;;;;5005652;28;19922;-66
2022/08/23 12:47:27;;;;;;;;;;;27.20;56.90;;;;;;5003916;28;19928;-66
2022/08/23 12:50:01;;;;;;;;;;;27.30;57.50;;;;;;5009025;28;20402;-66
2022/08/23 12:52:28;;;;;;;;;;;27.30;57.00;;;;;;5002867;28;19921;-66
2022/08/23 12:54:56;;;;;;;;;;;27.40;55.50;;;;;;5007394;28;19921;-66
2022/08/23 12:57:26;;;;;;;;;;;27.50;56.20;;;;;;5004072;28;19929;-67
2022/08/23 13:00:13;;;;;;;;;;;27.60;56.30;;;;;;5007695;28;19925;-66
2022/08/23 13:02:41;;;;;;;;;;;27.70;54.70;;;;;;5006709;28;19922;-67
2022/08/23 13:05:10;;;;;;;;;;;27.70;55.10;;;;;;5012429;28;19925;-67
2022/08/23 13:07:36;;;;;;;;;;;27.80;55.20;;;;;;5008675;28;19956;-67
2022/08/23 13:10:02;;;;;;;;;;;27.90;52.10;;;;;;5027826;28;20468;-67
2022/08/23 13:12:28;;;;;;;;;;;28.00;53.30;;;;;;5011922;28;20008;-67
2022/08/23 13:14:54;;;;;;;;;;;28.00;51.90;;;;;;5012122;28;20004;-67
2022/08/23 13:17:30;;;;;;;;;;;28.10;51.80;;;;;;5012685;28;20382;-67
2022/08/23 13:20:02;;;;;;;;;;;28.10;52.40;;;;;;5011876;28;19925;-67
2022/08/23 13:22:31;;;;;;;;;;;28.20;50.20;;;;;;5010588;28;19921;-67
2022/08/23 13:25:03;;;;;;;;;;;28.20;48.90;;;;;;5009034;28;20008;-67
2022/08/23 13:27:32;;;;;;;;;;;28.30;49.20;;;;;;5011231;28;19921;-67
2022/08/23 13:29:59;;;;;;;;;;;28.40;49.00;;;;;;5013171;28;19932;-67
2022/08/23 13:32:32;;;;;;;;;;;28.30;48.70;;;;;;5018795;28;19929;-67
2022/08/23 13:35:17;;;;;;;;;;;28.30;48.20;;;;;;5010788;28;19921;-67
2022/08/23 13:37:44;;;;;;;;;;;28.30;48.90;;;;;;5013285;28;19925;-67
2022/08/23 13:40:12;;;;;;;;;;;28.50;49.20;;;;;;5010135;28;19927;-67
2022/08/23 13:42:47;;;;;;;;;;;28.50;46.00;;;;;;5010962;28;20385;-67
2022/08/23 13:45:14;;;;;;;;;;;28.60;49.70;;;;;;5011779;28;19921;-67
2022/08/23 13:47:45;;;;;;;;;;;28.60;47.60;;;;;;5011367;28;19922;-67
2022/08/23 13:50:14;;;;;;;;;;;28.80;49.30;;;;;;5011275;28;19928;-67
2022/08/23 13:52:39;;;;;;;;;;;28.90;47.90;;;;;;5012102;28;19925;-67
2022/08/23 13:55:05;;;;;;;;;;;29.00;47.30;;;;;;5011972;28;19925;-67
2022/08/23 13:57:35;;;;;;;;;;;29.00;45.70;;;;;;5011211;28;19925;-67
2022/08/23 14:00:03;;;;;;;;;;;29.00;47.00;;;;;;5011088;28;20016;-67
2022/08/23 14:02:28;;;;;;;;;;;29.10;45.20;;;;;;5011459;28;19929;-67
2022/08/23 14:04:54;;;;;;;;;;;29.20;47.90;;;;;;5010123;28;19921;-67
2022/08/23 14:07:19;;;;;;;;;;;29.50;48.60;;;;;;5011337;28;19921;-67
2022/08/23 14:09:45;;;;;;;;;;;29.60;44.70;;;;;;5011213;28;20016;-67
2022/08/23 14:12:17;;;;;;;;;;;29.60;45.40;;;;;;5023049;28;19925;-67
2022/08/23 14:14:43;;;;;;;;;;;29.70;45.70;;;;;;5010737;28;19930;-67
2022/08/23 14:17:10;;;;;;;;;;;29.80;47.30;;;;;;5008821;28;19925;-67
2022/08/23 14:19:35;;;;;;;;;;;29.70;48.40;;;;;;5010098;28;20355;-67
2022/08/23 14:22:01;;;;;;;;;;;29.60;46.80;;;;;;5009855;28;20004;-67
2022/08/23 14:24:26;;;;;;;;;;;29.70;48.00;;;;;;5011281;28;19931;-67
2022/08/23 14:26:52;;;;;;;;;;;29.80;47.80;;;;;;5011067;28;19925;-67
2022/08/23 14:29:19;;;;;;;;;;;29.90;46.40;;;;;;5010430;28;20405;-67
2022/08/23 14:31:45;;;;;;;;;;;29.90;43.70;;;;;;5009585;28;19921;-67
2022/08/23 14:34:10;;;;;;;;;;;30.00;44.60;;;;;;5008292;28;19936;-67